createdAt,value
2019-05-28T00:00:02.321Z,21.50
2019-05-28T00:01:25.099Z,21.50
2019-05-28T00:02:51.140Z,21.50
2019-05-28T00:04:16.603Z,21.50
2019-05-28T00:05:42.977Z,21.50
2019-05-28T00:07:08.612Z,21.50
2019-05-28T00:08:34.651Z,21.50
2019-05-28T00:10:00.206Z,21.50
2019-05-28T00:11:26.413Z,21.40
2019-05-28T00:12:52.230Z,21.50
2019-05-28T00:14:18.332Z,21.50
2019-05-28T00:15:44.060Z,21.50
2019-05-28T00:17:10.105Z,21.50
2019-05-28T00:18:35.577Z,21.50
2019-05-28T00:20:01.629Z,21.40
2019-05-28T00:21:27.111Z,21.40
2019-05-28T00:22:53.275Z,21.40
2019-05-28T00:24:18.823Z,21.40
2019-05-28T00:25:45.169Z,21.40
2019-05-28T00:27:11.867Z,21.40
2019-05-28T00:28:37.965Z,21.40
2019-05-28T00:30:18.608Z,21.40
2019-05-28T00:31:31.435Z,21.40
2019-05-28T00:32:56.900Z,21.40
2019-05-28T00:34:23.021Z,21.50
2019-05-28T00:35:48.511Z,21.40
2019-05-28T00:37:14.509Z,21.40
2019-05-28T00:38:39.998Z,21.30
2019-05-28T00:40:08.056Z,21.30
2019-05-28T00:41:33.605Z,21.30
2019-05-28T00:42:59.682Z,21.30
2019-05-28T00:44:25.152Z,21.30
2019-05-28T00:45:51.291Z,21.30
2019-05-28T00:47:16.737Z,21.30
2019-05-28T00:48:43.074Z,21.30
2019-05-28T00:50:10.332Z,21.30
2019-05-28T00:51:36.841Z,21.30
2019-05-28T00:53:02.305Z,21.30
2019-05-28T00:54:28.389Z,21.40
2019-05-28T00:55:55.098Z,21.40
2019-05-28T00:57:21.860Z,21.40
2019-05-28T00:58:48.089Z,21.30
2019-05-28T01:00:14.528Z,21.40
2019-05-28T01:01:39.983Z,21.40
2019-05-28T01:03:06.150Z,21.40
2019-05-28T01:04:31.596Z,21.40
2019-05-28T01:05:57.665Z,21.40
2019-05-28T01:07:23.139Z,21.40
2019-05-28T01:08:49.287Z,21.40
2019-05-28T01:10:15.274Z,21.40
2019-05-28T01:11:41.300Z,21.40
2019-05-28T01:13:07.400Z,21.40
2019-05-28T01:14:33.464Z,21.40
2019-05-28T01:15:58.954Z,21.40
2019-05-28T01:17:25.069Z,21.30
2019-05-28T01:18:50.545Z,21.30
2019-05-28T01:20:16.915Z,21.30
2019-05-28T01:21:42.826Z,21.40
2019-05-28T01:23:13.515Z,21.40
2019-05-28T01:24:39.246Z,21.30
2019-05-28T01:26:16.842Z,21.30
2019-05-28T01:27:46.696Z,21.40
2019-05-28T01:29:14.103Z,21.30
2019-05-28T01:30:55.925Z,21.30
2019-05-28T01:32:14.298Z,21.20
2019-05-28T01:33:39.749Z,21.20
2019-05-28T01:35:06.172Z,21.20
2019-05-28T01:36:31.660Z,21.20
2019-05-28T01:37:57.704Z,21.20
2019-05-28T01:39:23.206Z,21.20
2019-05-28T01:40:49.258Z,21.30
2019-05-28T01:42:14.901Z,21.30
2019-05-28T01:43:41.016Z,21.30
2019-05-28T01:45:07.124Z,21.30
2019-05-28T01:46:33.200Z,21.30
2019-05-28T01:47:58.709Z,21.30
2019-05-28T01:49:24.788Z,21.30
2019-05-28T01:50:50.233Z,21.30
2019-05-28T01:52:16.434Z,21.30
2019-05-28T01:53:41.925Z,21.10
2019-05-28T01:55:09.552Z,21.10
2019-05-28T01:56:35.074Z,21.20
2019-05-28T01:58:01.134Z,21.10
2019-05-28T01:59:26.994Z,21.10
2019-05-28T02:00:53.097Z,21.10
2019-05-28T02:02:18.571Z,21.10
2019-05-28T02:03:44.691Z,21.20
2019-05-28T02:05:12.136Z,21.20
2019-05-28T02:06:38.216Z,21.20
2019-05-28T02:08:03.785Z,21.10
2019-05-28T02:09:29.897Z,21.10
2019-05-28T02:10:55.362Z,21.10
2019-05-28T02:12:21.919Z,21.10
2019-05-28T02:13:47.614Z,21.10
2019-05-28T02:15:14.347Z,21.20
2019-05-28T02:16:39.851Z,21.10
2019-05-28T02:18:06.042Z,21.20
2019-05-28T02:19:31.511Z,21.20
2019-05-28T02:20:57.684Z,21.20
2019-05-28T02:22:23.203Z,21.20
2019-05-28T02:23:49.277Z,21.10
2019-05-28T02:25:14.922Z,21.10
2019-05-28T02:26:40.941Z,21.10
2019-05-28T02:28:06.543Z,21.20
2019-05-28T02:29:32.879Z,21.20
2019-05-28T02:30:58.335Z,21.10
2019-05-28T02:32:24.420Z,21.20
2019-05-28T02:33:49.897Z,21.10
2019-05-28T02:35:16.248Z,21.10
2019-05-28T02:36:41.896Z,21.10
2019-05-28T02:38:08.105Z,21.10
2019-05-28T02:39:33.557Z,21.10
2019-05-28T02:40:59.746Z,21.10
2019-05-28T02:42:25.269Z,21.10
2019-05-28T02:43:51.421Z,21.10
2019-05-28T02:45:18.883Z,21.10
2019-05-28T02:46:44.953Z,21.10
2019-05-28T02:48:10.515Z,21.10
2019-05-28T02:49:36.607Z,21.10
2019-05-28T02:51:06.099Z,21.10
2019-05-28T02:52:32.513Z,21.10
2019-05-28T02:53:58.068Z,21.20
2019-05-28T02:55:24.239Z,21.30
2019-05-28T02:56:52.375Z,21.30
2019-05-28T02:58:20.639Z,21.20
2019-05-28T02:59:49.433Z,21.20
2019-05-28T03:01:15.472Z,21.10
2019-05-28T03:02:44.512Z,21.10
2019-05-28T03:04:11.604Z,21.10
2019-05-28T03:05:38.212Z,21.00
2019-05-28T03:07:05.527Z,21.10
2019-05-28T03:08:34.240Z,21.10
2019-05-28T03:10:03.632Z,21.10
2019-05-28T03:11:29.064Z,21.10
2019-05-28T03:12:55.307Z,21.10
2019-05-28T03:14:21.074Z,21.10
2019-05-28T03:15:49.956Z,21.00
2019-05-28T03:17:15.793Z,21.00
2019-05-28T03:18:43.560Z,21.10
2019-05-28T03:20:09.707Z,21.10
2019-05-28T03:21:37.811Z,21.10
2019-05-28T03:23:04.271Z,21.10
2019-05-28T03:24:32.545Z,21.00
2019-05-28T03:25:58.015Z,21.00
2019-05-28T03:27:24.151Z,21.00
2019-05-28T03:28:49.764Z,21.00
2019-05-28T03:30:15.983Z,21.00
2019-05-28T03:31:41.681Z,21.00
2019-05-28T03:33:07.968Z,21.00
2019-05-28T03:34:33.461Z,20.90
2019-05-28T03:36:00.563Z,21.00
2019-05-28T03:37:27.020Z,21.00
2019-05-28T03:38:53.816Z,21.00
2019-05-28T03:40:22.968Z,21.00
2019-05-28T03:41:49.119Z,21.00
2019-05-28T03:43:14.983Z,21.00
2019-05-28T03:44:41.058Z,21.00
2019-05-28T03:46:06.657Z,21.00
2019-05-28T03:47:32.695Z,21.10
2019-05-28T03:48:58.309Z,21.00
2019-05-28T03:50:24.485Z,21.00
2019-05-28T03:51:51.026Z,21.00
2019-05-28T03:53:17.075Z,21.10
2019-05-28T03:54:42.577Z,21.00
2019-05-28T03:56:08.638Z,21.10
2019-05-28T03:57:34.124Z,21.10
2019-05-28T03:59:00.224Z,21.10
2019-05-28T04:00:25.751Z,21.00
2019-05-28T04:01:51.788Z,21.00
2019-05-28T04:03:17.265Z,21.10
2019-05-28T04:04:43.354Z,21.10
2019-05-28T04:06:08.961Z,21.00
2019-05-28T04:07:35.055Z,21.10
2019-05-28T04:09:00.511Z,21.00
2019-05-28T04:10:26.579Z,21.00
2019-05-28T04:11:52.147Z,21.00
2019-05-28T04:13:18.220Z,20.90
2019-05-28T04:14:43.829Z,21.00
2019-05-28T04:16:09.881Z,21.00
2019-05-28T04:17:36.020Z,21.00
2019-05-28T04:19:02.247Z,21.00
2019-05-28T04:20:27.987Z,21.00
2019-05-28T04:22:03.287Z,20.90
2019-05-28T04:23:31.617Z,21.00
2019-05-28T04:24:57.699Z,20.90
2019-05-28T04:26:23.261Z,20.90
2019-05-28T04:27:49.415Z,20.90
2019-05-28T04:29:14.886Z,20.90
2019-05-28T04:30:40.968Z,20.90
2019-05-28T04:32:06.624Z,20.90
2019-05-28T04:33:32.670Z,20.90
2019-05-28T04:34:58.178Z,20.90
2019-05-28T04:36:24.247Z,20.80
2019-05-28T04:37:49.785Z,20.60
2019-05-28T04:39:15.952Z,20.60
2019-05-28T04:40:41.429Z,20.60
2019-05-28T04:42:07.473Z,20.60
2019-05-28T04:43:32.943Z,20.60
2019-05-28T04:44:59.048Z,20.60
2019-05-28T04:46:24.510Z,20.70
2019-05-28T04:47:50.545Z,20.70
2019-05-28T04:49:16.071Z,20.70
2019-05-28T04:50:42.155Z,20.70
2019-05-28T04:52:07.637Z,20.70
2019-05-28T04:53:34.318Z,20.70
2019-05-28T04:54:59.837Z,20.70
2019-05-28T04:56:25.884Z,20.70
2019-05-28T04:57:51.320Z,20.70
2019-05-28T04:59:17.392Z,20.80
2019-05-28T05:00:42.984Z,20.80
2019-05-28T05:02:09.026Z,20.80
2019-05-28T05:03:34.537Z,20.80
2019-05-28T05:05:00.614Z,20.80
2019-05-28T05:06:26.281Z,20.70
2019-05-28T05:07:52.380Z,20.70
2019-05-28T05:09:17.879Z,20.80
2019-05-28T05:10:43.973Z,20.80
2019-05-28T05:12:09.422Z,20.80
2019-05-28T05:13:35.488Z,20.80
2019-05-28T05:15:00.978Z,20.80
2019-05-28T05:16:27.121Z,20.90
2019-05-28T05:17:52.599Z,20.90
2019-05-28T05:19:18.704Z,20.80
2019-05-28T05:20:44.300Z,20.80
2019-05-28T05:22:10.380Z,20.80
2019-05-28T05:23:35.856Z,20.80
2019-05-28T05:25:02.141Z,20.80
2019-05-28T05:26:30.268Z,20.80
2019-05-28T05:27:56.328Z,20.90
2019-05-28T05:29:21.928Z,20.80
2019-05-28T05:30:48.003Z,20.80
2019-05-28T05:32:13.498Z,20.70
2019-05-28T05:33:39.917Z,20.70
2019-05-28T05:35:05.941Z,20.80
2019-05-28T05:36:32.082Z,20.80
2019-05-28T05:37:57.801Z,20.80
2019-05-28T05:39:23.992Z,20.80
2019-05-28T05:40:49.461Z,20.80
2019-05-28T05:42:15.617Z,20.80
2019-05-28T05:43:41.292Z,20.90
2019-05-28T05:45:07.961Z,20.80
2019-05-28T05:46:33.520Z,20.80
2019-05-28T05:47:59.691Z,20.80
2019-05-28T05:49:25.332Z,20.80
2019-05-28T05:50:51.383Z,20.90
2019-05-28T05:52:16.978Z,20.90
2019-05-28T05:53:43.085Z,20.90
2019-05-28T05:55:09.041Z,20.90
2019-05-28T05:56:35.156Z,20.90
2019-05-28T05:58:00.774Z,20.90
2019-05-28T05:59:27.091Z,20.90
2019-05-28T06:00:52.601Z,20.90
2019-05-28T06:02:18.666Z,21.00
2019-05-28T06:03:44.155Z,21.00
2019-05-28T06:05:10.817Z,21.00
2019-05-28T06:06:36.325Z,21.00
2019-05-28T06:08:02.420Z,21.00
2019-05-28T06:09:29.321Z,21.00
2019-05-28T06:10:55.364Z,21.10
2019-05-28T06:12:20.948Z,21.10
2019-05-28T06:13:47.081Z,21.10
2019-05-28T06:15:12.755Z,21.10
2019-05-28T06:16:38.836Z,21.10
2019-05-28T06:18:04.560Z,21.10
2019-05-28T06:19:30.846Z,21.10
2019-05-28T06:21:10.843Z,21.10
2019-05-28T06:22:24.150Z,21.10
2019-05-28T06:23:49.608Z,21.10
2019-05-28T06:25:15.932Z,21.10
2019-05-28T06:26:41.512Z,21.10
2019-05-28T06:28:07.628Z,21.10
2019-05-28T06:29:33.089Z,21.10
2019-05-28T06:31:01.931Z,21.20
2019-05-28T06:32:27.430Z,21.20
2019-05-28T06:33:57.181Z,21.20
2019-05-28T06:35:20.725Z,21.20
2019-05-28T06:36:48.092Z,21.20
2019-05-28T06:38:13.683Z,21.20
2019-05-28T06:39:39.845Z,21.30
2019-05-28T06:41:05.381Z,21.30
2019-05-28T06:42:36.267Z,21.30
2019-05-28T06:43:59.500Z,21.30
2019-05-28T06:45:25.659Z,21.30
2019-05-28T06:46:51.204Z,21.30
2019-05-28T06:48:17.396Z,21.40
2019-05-28T06:49:42.911Z,21.40
2019-05-28T06:51:08.981Z,21.40
2019-05-28T06:52:34.472Z,21.40
2019-05-28T06:54:00.528Z,21.40
2019-05-28T06:55:25.953Z,21.40
2019-05-28T06:56:52.045Z,21.50
2019-05-28T06:58:18.957Z,21.50
2019-05-28T06:59:45.005Z,21.50
2019-05-28T07:01:10.470Z,21.50
2019-05-28T07:02:36.633Z,21.50
2019-05-28T07:04:13.234Z,21.50
2019-05-28T07:05:29.776Z,21.50
2019-05-28T07:06:55.240Z,21.50
2019-05-28T07:08:21.317Z,21.50
2019-05-28T07:09:46.885Z,21.50
2019-05-28T07:11:13.062Z,21.50
2019-05-28T07:12:38.721Z,21.60
2019-05-28T07:14:04.847Z,21.60
2019-05-28T07:15:30.408Z,21.60
2019-05-28T07:16:56.467Z,21.60
2019-05-28T07:18:21.936Z,21.60
2019-05-28T07:19:48.001Z,21.60
2019-05-28T07:21:13.605Z,21.70
2019-05-28T07:22:39.705Z,21.70
2019-05-28T07:24:05.305Z,21.70
2019-05-28T07:25:31.337Z,21.70
2019-05-28T07:26:56.757Z,21.70
2019-05-28T07:28:22.813Z,21.80
2019-05-28T07:29:48.269Z,21.80
2019-05-28T07:31:14.299Z,21.90
2019-05-28T07:32:39.793Z,21.90
2019-05-28T07:34:06.072Z,21.80
2019-05-28T07:35:44.741Z,21.80
2019-05-28T07:36:59.149Z,21.80
2019-05-28T07:38:24.660Z,21.90
2019-05-28T07:39:50.793Z,21.90
2019-05-28T07:41:16.335Z,21.90
2019-05-28T07:42:42.397Z,21.90
2019-05-28T07:44:07.909Z,21.90
2019-05-28T07:45:33.904Z,22.00
2019-05-28T07:46:59.377Z,21.90
2019-05-28T07:48:25.672Z,22.00
2019-05-28T07:49:58.831Z,22.00
2019-05-28T07:51:20.105Z,22.00
2019-05-28T07:52:45.824Z,22.00
2019-05-28T07:54:11.904Z,22.10
2019-05-28T07:55:37.335Z,22.10
2019-05-28T07:57:03.372Z,22.10
2019-05-28T07:58:28.840Z,22.10
2019-05-28T07:59:54.922Z,22.20
2019-05-28T08:01:20.393Z,22.20
2019-05-28T08:02:46.696Z,22.20
2019-05-28T08:04:12.400Z,22.20
2019-05-28T08:05:43.171Z,22.30
2019-05-28T08:07:08.717Z,22.30
2019-05-28T08:08:35.161Z,22.30
2019-05-28T08:10:00.885Z,22.30
2019-05-28T08:11:30.027Z,22.40
2019-05-28T08:12:55.469Z,22.40
2019-05-28T08:14:21.657Z,22.50
2019-05-28T08:15:47.111Z,22.50
2019-05-28T08:17:13.292Z,22.50
2019-05-28T08:18:38.856Z,22.50
2019-05-28T08:20:05.433Z,22.60
2019-05-28T08:21:32.379Z,22.60
2019-05-28T08:22:58.737Z,22.60
2019-05-28T08:24:24.223Z,22.60
2019-05-28T08:25:50.333Z,22.70
2019-05-28T08:27:15.855Z,22.70
2019-05-28T08:28:41.962Z,22.80
2019-05-28T08:30:07.869Z,22.80
2019-05-28T08:31:33.927Z,22.90
2019-05-28T08:32:59.405Z,22.90
2019-05-28T08:34:25.485Z,22.90
2019-05-28T08:35:51.836Z,23.00
2019-05-28T08:37:17.994Z,23.00
2019-05-28T08:38:43.569Z,23.10
2019-05-28T08:40:10.852Z,23.10
2019-05-28T08:41:36.373Z,23.10
2019-05-28T08:43:02.432Z,23.20
2019-05-28T08:44:27.953Z,23.20
2019-05-28T08:45:54.137Z,23.30
2019-05-28T08:47:19.896Z,23.30
2019-05-28T08:48:45.901Z,23.30
2019-05-28T08:50:11.920Z,23.30
2019-05-28T08:51:38.119Z,23.40
2019-05-28T08:53:03.689Z,23.40
2019-05-28T08:54:29.825Z,23.50
2019-05-28T08:55:55.326Z,23.50
2019-05-28T08:57:21.784Z,23.50
2019-05-28T08:58:47.273Z,23.60
2019-05-28T09:00:13.984Z,23.70
2019-05-28T09:01:39.445Z,23.70
2019-05-28T09:03:05.798Z,23.70
2019-05-28T09:04:31.323Z,23.70
2019-05-28T09:05:57.486Z,23.70
2019-05-28T09:07:23.157Z,23.70
2019-05-28T09:08:49.223Z,23.80
2019-05-28T09:10:14.880Z,23.80
2019-05-28T09:11:40.966Z,23.90
2019-05-28T09:13:06.877Z,23.90
2019-05-28T09:14:54.444Z,23.90
2019-05-28T09:16:00.073Z,24.00
2019-05-28T09:17:26.140Z,24.00
2019-05-28T09:18:51.704Z,24.00
2019-05-28T09:20:18.012Z,24.00
2019-05-28T09:21:43.519Z,24.00
2019-05-28T09:23:09.809Z,24.10
2019-05-28T09:24:35.336Z,24.10
2019-05-28T09:26:01.405Z,24.20
2019-05-28T09:27:26.864Z,24.20
2019-05-28T09:28:52.965Z,24.30
2019-05-28T09:30:20.010Z,24.40
2019-05-28T09:31:46.092Z,24.30
2019-05-28T09:33:11.601Z,24.30
2019-05-28T09:34:37.653Z,24.30
2019-05-28T09:36:08.825Z,24.40
2019-05-28T09:37:30.808Z,24.40
2019-05-28T09:38:56.358Z,24.50
2019-05-28T09:40:23.085Z,24.50
2019-05-28T09:41:48.592Z,24.50
2019-05-28T09:43:14.640Z,24.60
2019-05-28T09:44:40.120Z,24.60
2019-05-28T09:46:06.529Z,24.60
2019-05-28T09:47:31.953Z,24.60
2019-05-28T09:48:58.092Z,24.70
2019-05-28T09:50:30.493Z,24.80
2019-05-28T09:51:51.483Z,24.80
2019-05-28T09:53:16.935Z,24.90
2019-05-28T09:54:42.966Z,24.90
2019-05-28T09:56:08.616Z,24.90
2019-05-28T09:57:46.306Z,25.00
2019-05-28T09:59:01.924Z,25.00
2019-05-28T10:00:29.905Z,25.00
2019-05-28T10:01:55.623Z,25.10
2019-05-28T10:03:21.664Z,25.10
2019-05-28T10:04:50.018Z,25.20
2019-05-28T10:06:17.373Z,25.20
2019-05-28T10:07:41.900Z,25.20
2019-05-28T10:09:08.899Z,25.30
2019-05-28T10:10:34.380Z,25.40
2019-05-28T10:12:00.674Z,25.30
2019-05-28T10:13:38.159Z,25.40
2019-05-28T10:14:53.835Z,25.50
2019-05-28T10:16:19.291Z,25.60
2019-05-28T10:17:45.481Z,25.70
2019-05-28T10:19:11.056Z,25.80
2019-05-28T10:20:38.121Z,25.80
2019-05-28T10:22:04.082Z,25.90
2019-05-28T10:23:30.141Z,25.90
2019-05-28T10:24:55.615Z,26.00
2019-05-28T10:26:21.744Z,26.00
2019-05-28T10:28:00.074Z,26.00
2019-05-28T10:29:14.963Z,26.00
2019-05-28T10:30:40.745Z,26.10
2019-05-28T10:32:07.296Z,26.10
2019-05-28T10:33:32.728Z,26.10
2019-05-28T10:35:03.964Z,26.30
2019-05-28T10:36:36.008Z,26.30
2019-05-28T10:37:53.756Z,26.30
2019-05-28T10:39:19.316Z,26.30
2019-05-28T10:40:45.353Z,26.20
2019-05-28T10:42:11.038Z,26.30
2019-05-28T10:43:37.116Z,26.30
2019-05-28T10:45:02.831Z,26.30
2019-05-28T10:46:28.902Z,26.30
2019-05-28T10:47:54.457Z,26.40
2019-05-28T10:49:20.487Z,26.40
2019-05-28T10:50:46.065Z,26.40
2019-05-28T10:52:12.293Z,26.40
2019-05-28T10:53:37.783Z,26.40
2019-05-28T10:55:03.984Z,26.40
2019-05-28T10:56:29.570Z,26.50
2019-05-28T10:57:55.664Z,26.50
2019-05-28T10:59:21.148Z,26.40
2019-05-28T11:00:47.329Z,26.50
2019-05-28T11:02:12.900Z,26.50
2019-05-28T11:03:39.007Z,26.50
2019-05-28T11:05:06.116Z,26.40
2019-05-28T11:06:32.303Z,26.40
2019-05-28T11:07:57.845Z,26.40
2019-05-28T11:09:24.005Z,26.40
2019-05-28T11:10:49.460Z,26.40
2019-05-28T11:12:15.527Z,26.40
2019-05-28T11:13:52.544Z,26.40
2019-05-28T11:15:09.940Z,26.40
2019-05-28T11:16:35.472Z,26.50
2019-05-28T11:18:01.749Z,26.60
2019-05-28T11:19:27.189Z,26.60
2019-05-28T11:20:53.273Z,26.60
2019-05-28T11:22:18.765Z,26.60
2019-05-28T11:23:44.872Z,26.70
2019-05-28T11:25:10.832Z,26.60
2019-05-28T11:26:36.974Z,26.60
2019-05-28T11:28:02.522Z,26.60
2019-05-28T11:29:28.668Z,26.70
2019-05-28T11:30:54.267Z,26.70
2019-05-28T11:32:20.468Z,26.70
2019-05-28T11:33:46.055Z,26.60
2019-05-28T11:35:13.310Z,26.60
2019-05-28T11:36:38.765Z,26.60
2019-05-28T11:38:04.913Z,26.60
2019-05-28T11:39:30.607Z,26.60
2019-05-28T11:40:56.637Z,26.60
2019-05-28T11:42:22.398Z,26.50
2019-05-28T11:43:48.431Z,26.50
2019-05-28T11:45:17.130Z,26.40
2019-05-28T11:46:43.238Z,26.40
2019-05-28T11:48:08.747Z,26.50
2019-05-28T11:49:34.885Z,26.40
2019-05-28T11:51:00.359Z,26.30
2019-05-28T11:52:26.414Z,26.30
2019-05-28T11:53:51.912Z,26.40
2019-05-28T11:55:18.658Z,26.40
2019-05-28T11:56:44.090Z,26.30
2019-05-28T11:58:10.125Z,26.30
2019-05-28T11:59:35.599Z,26.30
2019-05-28T12:01:01.744Z,26.40
2019-05-28T12:02:53.975Z,26.40
2019-05-28T12:04:20.048Z,26.50
2019-05-28T12:05:45.670Z,26.50
2019-05-28T12:07:25.130Z,26.40
2019-05-28T12:08:38.793Z,26.30
2019-05-28T12:10:05.643Z,26.30
2019-05-28T12:11:31.194Z,26.20
2019-05-28T12:12:57.362Z,26.10
2019-05-28T12:14:23.026Z,26.00
2019-05-28T12:15:49.092Z,25.90
2019-05-28T12:17:14.610Z,25.90
2019-05-28T12:18:40.767Z,25.80
2019-05-28T12:20:07.839Z,25.70
2019-05-28T12:21:33.885Z,25.60
2019-05-28T12:23:10.394Z,25.60
2019-05-28T12:24:28.521Z,25.50
2019-05-28T12:25:54.435Z,25.60
2019-05-28T12:27:20.496Z,25.60
2019-05-28T12:28:45.942Z,25.60
2019-05-28T12:30:13.030Z,25.60
2019-05-28T12:31:38.513Z,25.60
2019-05-28T12:33:04.740Z,25.50
2019-05-28T12:34:30.217Z,25.50
2019-05-28T12:35:56.374Z,25.50
2019-05-28T12:37:21.894Z,25.40
2019-05-28T12:38:48.018Z,25.40
2019-05-28T12:40:13.738Z,25.30
2019-05-28T12:41:39.888Z,25.20
2019-05-28T12:43:05.457Z,25.20
2019-05-28T12:44:41.644Z,25.10
2019-05-28T12:45:58.819Z,25.10
2019-05-28T12:47:24.940Z,25.10
2019-05-28T12:48:50.448Z,25.00
2019-05-28T12:50:20.405Z,25.10
2019-05-28T12:51:44.268Z,25.10
2019-05-28T12:53:10.298Z,25.20
2019-05-28T12:54:35.781Z,25.20
2019-05-28T12:56:02.054Z,25.20
2019-05-28T12:57:27.606Z,25.40
2019-05-28T12:58:53.672Z,25.40
2019-05-28T13:00:21.238Z,25.40
2019-05-28T13:01:47.269Z,25.40
2019-05-28T13:03:12.773Z,25.30
2019-05-28T13:04:38.996Z,25.30
2019-05-28T13:06:04.708Z,25.30
2019-05-28T13:07:30.885Z,25.30
2019-05-28T13:08:56.345Z,25.30
2019-05-28T13:10:22.606Z,25.30
2019-05-28T13:11:48.326Z,25.30
2019-05-28T13:13:14.524Z,25.30
2019-05-28T13:14:40.016Z,25.30
2019-05-28T13:16:06.280Z,25.20
2019-05-28T13:17:32.065Z,25.20
2019-05-28T13:18:58.120Z,25.10
2019-05-28T13:20:23.846Z,25.10
2019-05-28T13:21:49.961Z,25.10
2019-05-28T13:23:16.012Z,25.10
2019-05-28T13:24:42.179Z,25.10
2019-05-28T13:26:07.796Z,25.00
2019-05-28T13:27:33.984Z,25.10
2019-05-28T13:28:59.458Z,25.00
2019-05-28T13:30:26.075Z,25.00
2019-05-28T13:31:51.625Z,25.00
2019-05-28T13:33:17.693Z,25.00
2019-05-28T13:34:43.459Z,25.00
2019-05-28T13:36:09.589Z,25.00
2019-05-28T13:37:35.087Z,25.00
2019-05-28T13:39:01.132Z,25.00
2019-05-28T13:40:28.100Z,25.00
2019-05-28T13:41:54.696Z,25.00
2019-05-28T13:43:24.256Z,25.10
2019-05-28T13:44:53.502Z,25.00
2019-05-28T13:46:19.051Z,25.00
2019-05-28T13:47:45.340Z,25.00
2019-05-28T13:49:13.876Z,25.00
2019-05-28T13:50:40.343Z,25.00
2019-05-28T13:52:12.197Z,25.00
2019-05-28T13:53:33.985Z,25.00
2019-05-28T13:54:59.536Z,25.00
2019-05-28T13:56:25.637Z,24.90
2019-05-28T13:57:51.142Z,25.00
2019-05-28T13:59:17.513Z,24.90
2019-05-28T14:00:43.165Z,25.00
2019-05-28T14:02:09.365Z,25.00
2019-05-28T14:03:34.835Z,25.00
2019-05-28T14:05:00.889Z,25.00
2019-05-28T14:06:26.434Z,25.00
2019-05-28T14:07:52.527Z,25.00
2019-05-28T14:09:18.014Z,25.00
2019-05-28T14:10:44.176Z,25.00
2019-05-28T14:12:09.657Z,24.90
2019-05-28T14:13:35.799Z,24.90
2019-05-28T14:15:01.413Z,24.90
2019-05-28T14:16:30.635Z,24.90
2019-05-28T14:17:56.151Z,24.90
2019-05-28T14:19:22.217Z,24.90
2019-05-28T14:20:47.845Z,25.00
2019-05-28T14:22:13.913Z,25.00
2019-05-28T14:23:39.389Z,24.90
2019-05-28T14:25:05.660Z,25.00
2019-05-28T14:26:31.272Z,24.90
2019-05-28T14:27:57.344Z,24.90
2019-05-28T14:29:22.837Z,25.00
2019-05-28T14:30:59.515Z,24.90
2019-05-28T14:32:16.095Z,24.90
2019-05-28T14:33:42.171Z,24.90
2019-05-28T14:35:09.269Z,24.90
2019-05-28T14:36:35.333Z,24.80
2019-05-28T14:38:01.088Z,24.80
2019-05-28T14:39:40.586Z,24.70
2019-05-28T14:40:54.301Z,24.70
2019-05-28T14:42:20.423Z,24.70
2019-05-28T14:43:46.213Z,24.70
2019-05-28T14:45:14.163Z,24.70
2019-05-28T14:46:39.850Z,24.70
2019-05-28T14:48:06.225Z,24.80
2019-05-28T14:49:31.887Z,24.80
2019-05-28T14:50:57.967Z,24.80
2019-05-28T14:52:23.448Z,24.80
2019-05-28T14:53:49.578Z,24.80
2019-05-28T14:55:15.381Z,24.80
2019-05-28T14:56:41.442Z,24.70
2019-05-28T14:58:07.154Z,24.80
2019-05-28T14:59:35.956Z,24.70
2019-05-28T15:01:03.029Z,24.70
2019-05-28T15:02:29.148Z,24.70
2019-05-28T15:03:54.917Z,24.70
2019-05-28T15:05:21.205Z,24.70
2019-05-28T15:06:46.935Z,24.60
2019-05-28T15:08:13.031Z,24.60
2019-05-28T15:09:38.576Z,24.50
2019-05-28T15:11:04.843Z,24.60
2019-05-28T15:12:30.325Z,24.60
2019-05-28T15:13:56.544Z,24.60
2019-05-28T15:15:35.474Z,24.60
2019-05-28T15:16:49.951Z,24.50
2019-05-28T15:18:15.572Z,24.60
2019-05-28T15:19:41.649Z,24.60
2019-05-28T15:21:07.157Z,24.60
2019-05-28T15:22:33.227Z,24.50
2019-05-28T15:23:58.731Z,24.50
2019-05-28T15:25:24.904Z,24.50
2019-05-28T15:26:50.417Z,24.50
2019-05-28T15:28:16.521Z,24.50
2019-05-28T15:29:42.036Z,24.40
2019-05-28T15:31:08.163Z,24.40
2019-05-28T15:32:33.760Z,24.40
2019-05-28T15:33:59.938Z,24.40
2019-05-28T15:35:25.566Z,24.30
2019-05-28T15:36:51.824Z,24.30
2019-05-28T15:38:17.371Z,24.40
2019-05-28T15:39:43.588Z,24.40
2019-05-28T15:41:09.296Z,24.40
2019-05-28T15:42:35.566Z,24.50
2019-05-28T15:44:01.063Z,24.50
2019-05-28T15:45:27.227Z,24.50
2019-05-28T15:46:52.794Z,24.50
2019-05-28T15:48:19.961Z,24.40
2019-05-28T15:49:45.476Z,24.40
2019-05-28T15:51:11.544Z,24.40
2019-05-28T15:52:37.129Z,24.30
2019-05-28T15:54:03.180Z,24.40
2019-05-28T15:55:28.861Z,24.30
2019-05-28T15:56:54.962Z,24.20
2019-05-28T15:58:20.544Z,24.20
2019-05-28T15:59:46.708Z,24.30
2019-05-28T16:01:12.340Z,24.30
2019-05-28T16:02:38.425Z,24.30
2019-05-28T16:04:04.277Z,24.30
2019-05-28T16:05:30.387Z,24.30
2019-05-28T16:06:55.868Z,24.30
2019-05-28T16:08:21.906Z,24.20
2019-05-28T16:09:56.298Z,24.20
2019-05-28T16:11:15.106Z,24.20
2019-05-28T16:12:40.675Z,24.20
2019-05-28T16:14:06.975Z,24.20
2019-05-28T16:15:50.201Z,24.20
2019-05-28T16:17:16.245Z,24.10
2019-05-28T16:18:41.865Z,24.10
2019-05-28T16:20:08.627Z,24.10
2019-05-28T16:21:34.264Z,24.20
2019-05-28T16:23:00.308Z,24.20
2019-05-28T16:24:25.812Z,24.20
2019-05-28T16:25:51.940Z,24.20
2019-05-28T16:27:17.447Z,24.20
2019-05-28T16:28:43.476Z,24.20
2019-05-28T16:30:10.347Z,24.20
2019-05-28T16:31:37.928Z,24.10
2019-05-28T16:33:03.530Z,24.10
2019-05-28T16:34:29.636Z,24.10
2019-05-28T16:35:55.243Z,24.20
2019-05-28T16:37:21.418Z,24.10
2019-05-28T16:38:46.892Z,24.10
2019-05-28T16:40:16.239Z,24.10
2019-05-28T16:41:40.423Z,24.10
2019-05-28T16:43:06.766Z,24.10
2019-05-28T16:44:32.297Z,24.20
2019-05-28T16:45:58.436Z,24.10
2019-05-28T16:47:23.918Z,24.20
2019-05-28T16:48:50.140Z,24.10
2019-05-28T16:50:16.092Z,24.10
2019-05-28T16:51:42.146Z,24.10
2019-05-28T16:53:07.699Z,24.10
2019-05-28T16:54:33.837Z,24.00
2019-05-28T16:55:59.303Z,24.00
2019-05-28T16:57:25.467Z,23.90
2019-05-28T16:58:51.047Z,24.00
2019-05-28T17:00:18.624Z,24.00
2019-05-28T17:01:44.255Z,24.00
2019-05-28T17:03:10.312Z,24.00
2019-05-28T17:04:35.816Z,23.90
2019-05-28T17:06:01.861Z,23.90
2019-05-28T17:07:27.421Z,23.90
2019-05-28T17:08:53.512Z,23.90
2019-05-28T17:10:32.561Z,23.90
2019-05-28T17:11:46.968Z,24.00
2019-05-28T17:13:12.430Z,24.00
2019-05-28T17:14:38.520Z,23.90
2019-05-28T17:16:04.150Z,23.90
2019-05-28T17:17:30.220Z,23.90
2019-05-28T17:18:55.716Z,23.90
2019-05-28T17:20:21.935Z,23.90
2019-05-28T17:21:47.412Z,23.90
2019-05-28T17:23:13.557Z,23.90
2019-05-28T17:24:39.145Z,23.90
2019-05-28T17:26:05.445Z,23.90
2019-05-28T17:27:31.426Z,23.90
2019-05-28T17:28:57.496Z,23.80
2019-05-28T17:30:24.467Z,23.80
2019-05-28T17:31:50.917Z,23.80
2019-05-28T17:33:16.730Z,23.80
2019-05-28T17:34:42.863Z,23.80
2019-05-28T17:36:08.388Z,23.80
2019-05-28T17:37:34.572Z,23.80
2019-05-28T17:39:00.062Z,23.70
2019-05-28T17:40:26.153Z,23.70
2019-05-28T17:41:51.628Z,23.70
2019-05-28T17:43:17.737Z,23.80
2019-05-28T17:44:43.185Z,23.80
2019-05-28T17:46:09.342Z,23.80
2019-05-28T17:47:43.107Z,23.80
2019-05-28T17:49:02.735Z,23.80
2019-05-28T17:50:28.455Z,23.80
2019-05-28T17:51:54.492Z,23.80
2019-05-28T17:53:20.220Z,23.80
2019-05-28T17:54:46.872Z,23.80
2019-05-28T17:56:12.419Z,23.80
2019-05-28T17:57:38.589Z,23.80
2019-05-28T17:59:04.298Z,23.70
2019-05-28T18:00:30.381Z,23.70
2019-05-28T18:01:55.884Z,23.70
2019-05-28T18:03:21.927Z,23.70
2019-05-28T18:04:47.351Z,23.70
2019-05-28T18:06:13.405Z,23.60
2019-05-28T18:07:38.858Z,23.70
2019-05-28T18:09:06.867Z,23.70
2019-05-28T18:10:32.336Z,23.60
2019-05-28T18:11:58.383Z,23.70
2019-05-28T18:13:24.044Z,23.70
2019-05-28T18:14:50.088Z,23.70
2019-05-28T18:16:15.612Z,23.70
2019-05-28T18:17:41.623Z,23.70
2019-05-28T18:19:07.120Z,23.70
2019-05-28T18:20:33.281Z,23.70
2019-05-28T18:21:58.960Z,23.70
2019-05-28T18:23:25.007Z,23.70
2019-05-28T18:24:50.552Z,23.80
2019-05-28T18:26:16.598Z,23.70
2019-05-28T18:27:42.045Z,23.70
2019-05-28T18:29:08.244Z,23.70